createdAt,value
2022-12-12T00:02:18.560Z,-4.22
2022-12-12T00:05:20.564Z,-4.22
2022-12-12T00:08:22.431Z,-4.22
2022-12-12T00:11:25.455Z,-4.22
2022-12-12T00:14:27.245Z,-4.22
2022-12-12T00:17:28.988Z,-4.23
2022-12-12T00:20:30.961Z,-4.24
2022-12-12T00:23:32.745Z,-4.24
2022-12-12T00:26:35.284Z,-4.25
2022-12-12T00:29:37.012Z,-4.26
2022-12-12T00:32:38.709Z,-4.26
2022-12-12T00:35:40.311Z,-4.26
2022-12-12T00:38:41.958Z,-4.26
2022-12-12T00:41:44.003Z,-4.26
2022-12-12T00:44:45.701Z,-4.25
2022-12-12T00:47:47.411Z,-4.25
2022-12-12T00:50:49.205Z,-4.24
2022-12-12T00:53:50.905Z,-4.25
2022-12-12T00:56:52.607Z,-4.25
2022-12-12T00:59:58.263Z,-4.24
2022-12-12T01:03:00.038Z,-4.24
2022-12-12T01:06:02.095Z,-4.24
2022-12-12T01:09:04.195Z,-4.25
2022-12-12T01:12:06.052Z,-4.25
2022-12-12T01:15:09.325Z,-4.24
2022-12-12T01:18:11.188Z,-4.23
2022-12-12T01:21:15.495Z,-4.22
2022-12-12T01:24:17.161Z,-4.22
2022-12-12T01:27:18.860Z,-4.22
2022-12-12T01:30:22.351Z,-4.21
2022-12-12T01:33:24.206Z,-4.21
2022-12-12T01:36:25.814Z,-4.19
2022-12-12T01:39:27.499Z,-4.17
2022-12-12T01:42:29.732Z,-4.17
2022-12-12T01:45:59.725Z,-4.17
2022-12-12T01:49:06.467Z,-4.17
2022-12-12T01:52:16.611Z,-4.17
2022-12-12T01:55:22.756Z,-4.18
2022-12-12T01:58:25.133Z,-4.19
2022-12-12T02:01:27.101Z,-4.20
2022-12-12T02:04:28.940Z,-4.21
2022-12-12T02:07:30.757Z,-4.22
2022-12-12T02:10:32.313Z,-4.23
2022-12-12T02:13:34.961Z,-4.24
2022-12-12T02:17:26.637Z,-4.26
2022-12-12T02:20:47.198Z,-4.27
2022-12-12T02:24:04.027Z,-4.28
2022-12-12T02:27:50.332Z,-4.28
2022-12-12T02:31:37.082Z,-4.28
2022-12-12T02:34:50.515Z,-4.29
2022-12-12T02:37:59.567Z,-4.30
2022-12-12T02:41:07.550Z,-4.32
2022-12-12T02:44:26.664Z,-4.32
2022-12-12T02:47:31.028Z,-4.31
2022-12-12T02:50:33.199Z,-4.32
2022-12-12T02:53:35.085Z,-4.33
2022-12-12T02:56:50.731Z,-4.33
2022-12-12T03:00:07.525Z,-4.34
2022-12-12T03:03:52.678Z,-4.33
2022-12-12T03:07:25.750Z,-4.35
2022-12-12T03:10:46.579Z,-4.35
2022-12-12T03:13:57.599Z,-4.36
2022-12-12T03:17:09.965Z,-4.36
2022-12-12T03:20:23.184Z,-4.36
2022-12-12T03:23:28.582Z,-4.36
2022-12-12T03:26:34.286Z,-4.37
2022-12-12T03:30:01.885Z,-4.38
2022-12-12T03:33:10.847Z,-4.37
2022-12-12T03:36:19.312Z,-4.35
2022-12-12T03:39:29.035Z,-4.37
2022-12-12T03:42:39.254Z,-4.36
2022-12-12T03:46:07.595Z,-4.37
2022-12-12T03:49:14.609Z,-4.36
2022-12-12T03:52:27.058Z,-4.37
2022-12-12T03:55:45.209Z,-4.36
2022-12-12T03:58:50.320Z,-4.37
2022-12-12T04:02:07.915Z,-4.37
2022-12-12T04:05:20.977Z,-4.37
2022-12-12T04:08:22.786Z,-4.37
2022-12-12T04:11:43.340Z,-4.38
2022-12-12T04:14:59.689Z,-4.38
2022-12-12T04:18:16.287Z,-4.39
2022-12-12T04:22:02.732Z,-4.40
2022-12-12T04:25:11.384Z,-4.41
2022-12-12T04:28:13.702Z,-4.41
2022-12-12T04:31:16.638Z,-4.41
2022-12-12T04:34:28.671Z,-4.42
2022-12-12T04:37:34.083Z,-4.42
2022-12-12T04:40:41.469Z,-4.42
2022-12-12T04:43:44.539Z,-4.43
2022-12-12T04:46:48.633Z,-4.44
2022-12-12T04:49:52.823Z,-4.43
2022-12-12T04:52:56.181Z,-4.44
2022-12-12T04:56:00.119Z,-4.44
2022-12-12T04:59:03.371Z,-4.44
2022-12-12T05:02:16.045Z,-4.45
2022-12-12T05:05:22.064Z,-4.52
2022-12-12T05:08:28.270Z,-4.68
2022-12-12T05:11:30.287Z,-4.81
2022-12-12T05:14:32.078Z,-4.89
2022-12-12T05:17:35.650Z,-4.95
2022-12-12T05:20:37.480Z,-4.98
2022-12-12T05:23:39.184Z,-5.01
2022-12-12T05:26:41.548Z,-5.05
2022-12-12T05:29:43.338Z,-5.09
2022-12-12T05:32:45.057Z,-4.96
2022-12-12T05:35:46.745Z,-4.61
2022-12-12T05:38:48.578Z,-4.28
2022-12-12T05:41:50.176Z,-4.21
2022-12-12T05:44:51.942Z,-4.44
2022-12-12T05:47:53.545Z,-4.57
2022-12-12T05:50:55.635Z,-4.61
2022-12-12T05:53:57.265Z,-4.65
2022-12-12T05:56:59.079Z,-4.69
2022-12-12T06:00:00.900Z,-4.70
2022-12-12T06:03:02.815Z,-4.70
2022-12-12T06:06:04.707Z,-4.71
2022-12-12T06:09:06.294Z,-4.75
2022-12-12T06:12:08.057Z,-4.78
2022-12-12T06:15:10.416Z,-4.81
2022-12-12T06:18:12.382Z,-4.85
2022-12-12T06:21:14.044Z,-4.88
2022-12-12T06:24:15.845Z,-4.63
2022-12-12T06:27:17.494Z,-4.30
2022-12-12T06:30:19.499Z,-4.17
2022-12-12T06:33:21.096Z,-4.32
2022-12-12T06:36:24.339Z,-4.29
2022-12-12T06:39:26.337Z,-4.29
2022-12-12T06:42:28.189Z,-4.30
2022-12-12T06:45:29.911Z,-4.30
2022-12-12T06:48:32.793Z,-4.29
2022-12-12T06:51:37.409Z,-4.28
2022-12-12T06:54:39.010Z,-4.27
2022-12-12T06:57:40.636Z,-4.25
2022-12-12T07:00:42.422Z,-4.23
2022-12-12T07:03:44.369Z,-4.21
2022-12-12T07:06:45.992Z,-4.20
2022-12-12T07:09:47.849Z,-4.19
2022-12-12T07:12:53.285Z,-4.18
2022-12-12T07:15:57.951Z,-4.17
2022-12-12T07:18:59.856Z,-4.16
2022-12-12T07:22:07.457Z,-4.14
2022-12-12T07:25:11.640Z,-4.12
2022-12-12T07:28:14.589Z,-4.11
2022-12-12T07:31:19.287Z,-4.08
2022-12-12T07:34:20.984Z,-4.05
2022-12-12T07:37:22.775Z,-4.02
2022-12-12T07:40:24.513Z,-4.00
2022-12-12T07:43:26.847Z,-3.99
2022-12-12T07:46:29.397Z,-3.96
2022-12-12T07:49:31.156Z,-3.94
2022-12-12T07:52:33.002Z,-3.92
2022-12-12T07:55:34.907Z,-3.90
2022-12-12T07:58:37.473Z,-3.89
2022-12-12T08:01:39.796Z,-3.87
2022-12-12T08:04:42.064Z,-3.84
2022-12-12T08:07:44.065Z,-3.82
2022-12-12T08:10:45.790Z,-3.79
2022-12-12T08:13:48.136Z,-3.76
2022-12-12T08:16:49.864Z,-3.72
2022-12-12T08:19:51.735Z,-3.70
2022-12-12T08:22:53.741Z,-3.66
2022-12-12T08:25:55.436Z,-3.62
2022-12-12T08:28:58.011Z,-3.62
2022-12-12T08:31:59.840Z,-3.58
2022-12-12T08:35:01.377Z,-3.56
2022-12-12T08:38:03.993Z,-3.55
2022-12-12T08:41:05.701Z,-3.55
2022-12-12T08:44:08.202Z,-3.54
2022-12-12T08:47:10.785Z,-3.53
2022-12-12T08:50:12.794Z,-3.51
2022-12-12T08:53:14.505Z,-3.49
2022-12-12T08:56:17.789Z,-3.46
2022-12-12T08:59:19.978Z,-3.43
2022-12-12T09:02:21.833Z,-3.42
2022-12-12T09:05:23.716Z,-3.42
2022-12-12T09:08:25.378Z,-3.42
2022-12-12T09:11:27.375Z,-3.42
2022-12-12T09:14:29.109Z,-3.42
2022-12-12T09:17:30.931Z,-3.40
2022-12-12T09:20:32.815Z,-3.39
2022-12-12T09:23:35.065Z,-3.38
2022-12-12T09:26:37.914Z,-3.34
2022-12-12T09:29:40.189Z,-3.31
2022-12-12T09:32:42.249Z,-3.30
2022-12-12T09:35:44.399Z,-3.27
2022-12-12T09:38:46.134Z,-3.22
2022-12-12T09:41:47.851Z,-3.20
2022-12-12T09:44:54.730Z,-3.19
2022-12-12T09:48:00.532Z,-3.16
2022-12-12T09:51:02.707Z,-3.12
2022-12-12T09:54:04.416Z,-3.09
2022-12-12T09:57:24.941Z,-3.06
2022-12-12T10:00:27.401Z,-3.02
2022-12-12T10:03:50.968Z,-2.96
2022-12-12T10:07:04.813Z,-2.93
2022-12-12T10:10:25.951Z,-2.88
2022-12-12T10:13:30.137Z,-2.84
2022-12-12T10:16:32.792Z,-2.79
2022-12-12T10:19:42.820Z,-2.71
2022-12-12T10:22:56.857Z,-2.65
2022-12-12T10:26:24.380Z,-2.61
2022-12-12T10:29:27.097Z,-2.56
2022-12-12T10:32:58.324Z,-2.52
2022-12-12T10:36:12.775Z,-2.49
2022-12-12T10:39:24.485Z,-2.47
2022-12-12T10:42:43.389Z,-2.43
2022-12-12T10:45:59.329Z,-2.35
2022-12-12T10:49:01.145Z,-2.31
2022-12-12T10:52:05.300Z,-2.29
2022-12-12T10:55:36.313Z,-2.29
2022-12-12T10:58:46.319Z,-2.30
2022-12-12T11:02:10.169Z,-2.32
2022-12-12T11:05:25.033Z,-2.33
2022-12-12T11:08:31.899Z,-2.31
2022-12-12T11:11:34.191Z,-2.30
2022-12-12T11:14:45.921Z,-2.28
2022-12-12T11:17:50.119Z,-2.28
2022-12-12T11:21:02.123Z,-2.30
2022-12-12T11:24:08.381Z,-2.34
2022-12-12T11:27:19.786Z,-2.38
2022-12-12T11:30:32.876Z,-2.43
2022-12-12T11:33:39.541Z,-2.49
2022-12-12T11:36:41.920Z,-2.53
2022-12-12T11:39:46.145Z,-2.54
2022-12-12T11:42:47.873Z,-2.58
2022-12-12T11:45:59.875Z,-2.60
2022-12-12T11:49:06.008Z,-2.61
2022-12-12T11:52:30.672Z,-2.62
2022-12-12T11:55:58.124Z,-2.69
2022-12-12T11:59:23.442Z,-2.71
2022-12-12T12:02:47.081Z,-2.72
2022-12-12T12:06:17.895Z,-2.74
2022-12-12T12:09:47.646Z,-2.78
2022-12-12T12:13:02.601Z,-2.82
2022-12-12T12:16:22.464Z,-2.83
2022-12-12T12:19:39.324Z,-2.84
2022-12-12T12:23:04.545Z,-2.85
2022-12-12T12:26:11.772Z,-2.89
2022-12-12T12:29:25.843Z,-2.90
2022-12-12T12:32:44.082Z,-2.89
2022-12-12T12:36:01.531Z,-2.90
2022-12-12T12:39:30.001Z,-2.92
2022-12-12T12:42:46.179Z,-2.91
2022-12-12T12:46:00.009Z,-2.93
2022-12-12T12:49:27.849Z,-2.93
2022-12-12T12:53:12.225Z,-2.95
2022-12-12T12:56:26.523Z,-2.96
2022-12-12T12:59:34.859Z,-2.98
2022-12-12T13:03:11.182Z,-2.99
2022-12-12T13:06:19.003Z,-2.99
2022-12-12T13:09:44.848Z,-3.00
2022-12-12T13:12:59.019Z,-3.02
2022-12-12T13:16:20.361Z,-3.03
2022-12-12T13:19:35.672Z,-3.04
2022-12-12T13:22:52.629Z,-3.05
2022-12-12T13:25:58.456Z,-3.06
2022-12-12T13:29:04.610Z,-3.07
2022-12-12T13:32:37.758Z,-3.08
2022-12-12T13:35:51.169Z,-3.10
2022-12-12T13:38:57.986Z,-3.11
2022-12-12T13:42:05.350Z,-3.13
2022-12-12T13:45:32.220Z,-3.14
2022-12-12T13:48:46.160Z,-3.15
2022-12-12T13:51:48.605Z,-3.17
2022-12-12T13:54:50.425Z,-3.18
2022-12-12T13:58:06.779Z,-3.20
2022-12-12T14:01:27.238Z,-3.21
2022-12-12T14:04:32.222Z,-3.23
2022-12-12T14:07:34.260Z,-3.25
2022-12-12T14:10:48.110Z,-3.26
2022-12-12T14:13:51.089Z,-3.27
2022-12-12T14:16:54.767Z,-3.28
2022-12-12T14:19:58.656Z,-3.29
2022-12-12T14:23:09.153Z,-3.29
2022-12-12T14:26:29.003Z,-3.30
2022-12-12T14:29:33.173Z,-3.31
2022-12-12T14:32:43.882Z,-3.31
2022-12-12T14:35:53.802Z,-3.31
2022-12-12T14:39:21.874Z,-3.32
2022-12-12T14:43:20.438Z,-3.32
2022-12-12T14:45:56.969Z,-3.32
2022-12-12T14:49:03.752Z,-3.33
2022-12-12T14:52:05.604Z,-3.33
2022-12-12T14:55:07.471Z,-3.33
2022-12-12T14:58:09.287Z,-3.34
2022-12-12T15:01:10.890Z,-3.35
2022-12-12T15:04:15.546Z,-3.35
2022-12-12T15:07:29.116Z,-3.37
2022-12-12T15:10:30.975Z,-3.37
2022-12-12T15:13:32.692Z,-3.37
2022-12-12T15:16:40.692Z,-3.37
2022-12-12T15:19:49.223Z,-3.37
2022-12-12T15:22:57.885Z,-3.37
2022-12-12T15:25:59.519Z,-3.37
2022-12-12T15:29:01.150Z,-3.38
2022-12-12T15:32:06.663Z,-3.38
2022-12-12T15:35:08.439Z,-3.38
2022-12-12T15:38:13.464Z,-3.38
2022-12-12T15:41:21.388Z,-3.38
2022-12-12T15:44:23.193Z,-3.39
2022-12-12T15:47:25.103Z,-3.39
2022-12-12T15:50:41.910Z,-3.39
2022-12-12T15:53:49.573Z,-3.39
2022-12-12T15:56:51.226Z,-3.40
2022-12-12T16:00:32.341Z,-3.40
2022-12-12T16:03:34.540Z,-3.39
2022-12-12T16:06:45.190Z,-3.40
2022-12-12T16:10:01.651Z,-3.40
2022-12-12T16:13:24.952Z,-3.39
2022-12-12T16:16:43.961Z,-3.38
2022-12-12T16:20:01.430Z,-3.37
2022-12-12T16:23:22.322Z,-3.37
2022-12-12T16:26:24.031Z,-3.37
2022-12-12T16:29:26.679Z,-3.36
2022-12-12T16:32:28.483Z,-3.36
2022-12-12T16:35:30.262Z,-3.41
2022-12-12T16:38:32.019Z,-3.55
2022-12-12T16:41:33.907Z,-3.65
2022-12-12T16:44:35.535Z,-3.66
2022-12-12T16:47:37.222Z,-3.68
2022-12-12T16:50:38.945Z,-3.70
2022-12-12T16:53:40.672Z,-3.75
2022-12-12T16:56:43.195Z,-3.78
2022-12-12T16:59:45.169Z,-3.79
2022-12-12T17:02:46.921Z,-3.76
2022-12-12T17:05:48.717Z,-3.75
2022-12-12T17:08:50.302Z,-3.51
2022-12-12T17:11:52.221Z,-3.16
2022-12-12T17:14:53.843Z,-3.08
2022-12-12T17:17:56.093Z,-3.25
2022-12-12T17:20:58.013Z,-3.33
2022-12-12T17:23:59.674Z,-3.38
2022-12-12T17:27:01.431Z,-3.39
2022-12-12T17:30:04.803Z,-3.37
2022-12-12T17:33:18.842Z,-3.35
2022-12-12T17:36:21.332Z,-3.35
2022-12-12T17:39:23.115Z,-3.33
2022-12-12T17:42:24.938Z,-3.30
2022-12-12T17:45:26.612Z,-3.29
2022-12-12T17:48:33.398Z,-3.28
2022-12-12T17:51:35.198Z,-3.29
2022-12-12T17:54:36.887Z,-3.33
2022-12-12T17:57:38.585Z,-3.37
2022-12-12T18:00:40.333Z,-3.39
2022-12-12T18:03:42.901Z,-3.40
2022-12-12T18:06:44.630Z,-3.42
2022-12-12T18:09:46.298Z,-3.44
2022-12-12T18:12:51.594Z,-3.45
2022-12-12T18:15:57.928Z,-3.32
2022-12-12T18:19:00.548Z,-3.08
2022-12-12T18:22:02.643Z,-2.97
2022-12-12T18:25:05.112Z,-3.14
2022-12-12T18:28:06.859Z,-3.26
2022-12-12T18:31:08.690Z,-3.30
2022-12-12T18:34:10.596Z,-3.32
2022-12-12T18:37:12.306Z,-3.33
2022-12-12T18:40:14.361Z,-3.35
2022-12-12T18:43:16.374Z,-3.36
2022-12-12T18:46:20.588Z,-3.36
2022-12-12T18:49:22.451Z,-3.36
2022-12-12T18:52:24.064Z,-3.36
2022-12-12T18:55:30.107Z,-3.31
2022-12-12T18:58:32.081Z,-3.27
2022-12-12T19:01:36.175Z,-3.28
2022-12-12T19:04:39.047Z,-3.32
2022-12-12T19:07:41.592Z,-3.34
2022-12-12T19:10:43.282Z,-3.33
2022-12-12T19:13:46.529Z,-3.33
2022-12-12T19:16:48.284Z,-3.32
2022-12-12T19:19:50.706Z,-3.31
2022-12-12T19:22:52.430Z,-3.29
2022-12-12T19:25:54.049Z,-3.27
2022-12-12T19:28:59.548Z,-3.26
2022-12-12T19:32:01.256Z,-3.24
2022-12-12T19:35:02.975Z,-3.24
2022-12-12T19:38:04.689Z,-3.22
2022-12-12T19:41:07.704Z,-3.20
2022-12-12T19:44:12.832Z,-3.19
2022-12-12T19:47:14.658Z,-3.18
2022-12-12T19:50:16.685Z,-3.15
2022-12-12T19:53:18.557Z,-3.02
2022-12-12T19:56:22.295Z,-2.84
2022-12-12T19:59:23.899Z,-2.72
2022-12-12T20:02:25.598Z,-2.81
2022-12-12T20:05:27.601Z,-2.88
2022-12-12T20:08:31.104Z,-2.89
2022-12-12T20:11:32.816Z,-2.88
2022-12-12T20:14:36.579Z,-2.87
2022-12-12T20:17:38.420Z,-2.85
2022-12-12T20:20:40.232Z,-2.82
2022-12-12T20:23:47.058Z,-2.80
2022-12-12T20:26:49.168Z,-2.78
2022-12-12T20:29:50.762Z,-2.75
2022-12-12T20:32:52.479Z,-2.74
2022-12-12T20:35:54.104Z,-2.74
2022-12-12T20:38:57.373Z,-2.73
2022-12-12T20:41:59.158Z,-2.72
2022-12-12T20:45:02.031Z,-2.72
2022-12-12T20:48:07.549Z,-2.74
2022-12-12T20:51:45.544Z,-2.74
2022-12-12T20:54:33.647Z,-2.76
2022-12-12T20:57:35.308Z,-2.79
2022-12-12T21:00:38.417Z,-2.78
2022-12-12T21:03:41.197Z,-2.78
2022-12-12T21:06:48.163Z,-2.77
2022-12-12T21:09:50.230Z,-2.75
2022-12-12T21:12:51.893Z,-2.72
2022-12-12T21:15:53.964Z,-2.65
2022-12-12T21:18:56.936Z,-2.49
2022-12-12T21:21:58.579Z,-2.30
2022-12-12T21:25:00.308Z,-2.31
2022-12-12T21:28:02.006Z,-2.37
2022-12-12T21:31:06.496Z,-2.39
2022-12-12T21:34:08.507Z,-2.35
2022-12-12T21:37:10.196Z,-2.26
2022-12-12T21:40:12.361Z,-2.21
2022-12-12T21:43:14.012Z,-2.18
2022-12-12T21:46:21.784Z,-2.15
2022-12-12T21:49:26.894Z,-2.13
2022-12-12T21:52:28.879Z,-2.12
2022-12-12T21:55:30.761Z,-2.11
2022-12-12T21:58:32.562Z,-2.10
2022-12-12T22:01:34.425Z,-2.11
2022-12-12T22:04:35.984Z,-2.11
2022-12-12T22:07:37.574Z,-2.11
2022-12-12T22:10:39.193Z,-2.11
2022-12-12T22:13:42.730Z,-2.11
2022-12-12T22:16:45.088Z,-2.11
2022-12-12T22:19:47.215Z,-2.11
2022-12-12T22:22:48.840Z,-2.12
2022-12-12T22:25:50.563Z,-2.11
2022-12-12T22:28:54.429Z,-2.12
2022-12-12T22:31:56.154Z,-2.11
2022-12-12T22:34:58.723Z,-2.13
2022-12-12T22:38:00.361Z,-2.14
2022-12-12T22:41:02.037Z,-2.17
2022-12-12T22:44:06.044Z,-2.18
2022-12-12T22:47:07.698Z,-2.19
2022-12-12T22:50:10.077Z,-2.20
2022-12-12T22:53:13.242Z,-2.20
2022-12-12T22:56:15.739Z,-2.21
2022-12-12T22:59:17.424Z,-2.22
2022-12-12T23:02:24.803Z,-2.23
2022-12-12T23:05:27.300Z,-2.25
2022-12-12T23:08:29.067Z,-2.26
2022-12-12T23:11:31.076Z,-2.26
2022-12-12T23:14:32.881Z,-2.26
2022-12-12T23:17:34.607Z,-2.27
2022-12-12T23:20:36.282Z,-2.29
2022-12-12T23:23:38.881Z,-2.31
2022-12-12T23:26:41.511Z,-2.33
2022-12-12T23:29:43.219Z,-2.35
2022-12-12T23:32:44.943Z,-2.38
2022-12-12T23:35:49.755Z,-2.42
2022-12-12T23:38:59.822Z,-2.44
2022-12-12T23:42:01.581Z,-2.47
2022-12-12T23:45:03.367Z,-2.49
2022-12-12T23:48:05.890Z,-2.50
2022-12-12T23:51:07.547Z,-2.52
2022-12-12T23:54:10.547Z,-2.53
2022-12-12T23:57:12.289Z,-2.56
